Time;durP1;ratioP1;P1;durP2;ratioP2;P2;SDS_P1;SDS_P2;PMS_P1;PMS_P2;Temp;Humidity;BMP_temperature;BMP_pressure;BME280_temperature;BME280_humidity;BME280_pressure;Samples;Min_cycle;Max_cycle;Signal;HPM_P1;HPM_P2
2023/03/22 00:00:38;;;;;;;0.75;0.75;;;10.20;99.90;;;;;;5071580;28;20169;-82
2023/03/22 00:03:05;;;;;;;0.80;0.60;;;10.20;99.90;;;;;;5072011;28;20187;-82
2023/03/22 00:05:31;;;;;;;3.88;1.23;;;10.20;99.90;;;;;;5073314;28;20051;-82
2023/03/22 00:07:57;;;;;;;1.98;1.58;;;10.10;99.90;;;;;;5073158;28;20041;-82
2023/03/22 00:10:25;;;;;;;1.15;0.85;;;10.10;1.00;;;;;;5060759;28;20047;-82
2023/03/22 00:12:51;;;;;;;0.32;0.32;;;10.10;70.50;;;;;;5065934;28;20456;-83
2023/03/22 00:15:17;;;;;;;0.82;0.77;;;10.10;1.00;;;;;;5073391;28;20071;-82
2023/03/22 00:17:43;;;;;;;2.75;1.83;;;10.10;95.30;;;;;;5072721;28;20094;-82
2023/03/22 00:20:10;;;;;;;1.50;1.40;;;10.10;99.90;;;;;;5064083;28;20045;-82
2023/03/22 00:22:37;;;;;;;2.85;0.98;;;10.10;99.90;;;;;;5053897;28;20063;-82
2023/03/22 00:25:04;;;;;;;0.20;0.20;;;10.10;99.90;;;;;;5053586;28;20122;-83
2023/03/22 00:27:30;;;;;;;0.38;0.38;;;10.10;99.90;;;;;;5053571;28;20068;-82
2023/03/22 00:29:56;;;;;;;1.10;0.85;;;10.10;1.00;;;;;;5052997;28;20060;-82
2023/03/22 00:32:23;;;;;;;0.47;0.38;;;10.10;99.90;;;;;;5051808;28;20049;-81
2023/03/22 00:34:48;;;;;;;1.58;0.73;;;10.00;1.00;;;;;;5067382;28;20101;-81
2023/03/22 00:37:17;;;;;;;0.43;0.43;;;9.90;99.90;;;;;;5071639;28;20049;-81
2023/03/22 00:39:43;;;;;;;0.30;0.30;;;9.90;99.90;;;;;;5067806;28;20045;-81
2023/03/22 00:42:10;;;;;;;0.52;0.38;;;9.90;1.00;;;;;;5050786;28;20072;-81
2023/03/22 00:44:35;;;;;;;4.78;0.47;;;9.80;99.90;;;;;;5052045;28;20049;-82
2023/03/22 00:47:01;;;;;;;0.68;0.38;;;9.80;1.00;;;;;;5050980;28;20060;-81
2023/03/22 00:49:28;;;;;;;2.17;1.27;;;9.80;99.90;;;;;;5051906;28;20056;-81
2023/03/22 00:51:53;;;;;;;19.75;0.90;;;9.80;99.90;;;;;;5052204;28;20179;-81
2023/03/22 00:54:20;;;;;;;0.32;0.32;;;9.80;99.90;;;;;;5052309;28;20613;-82
2023/03/22 00:56:46;;;;;;;0.15;0.15;;;9.80;99.50;;;;;;5051972;28;20398;-82
2023/03/22 00:59:12;;;;;;;0.63;0.35;;;9.80;90.70;;;;;;5067888;28;20043;-81
2023/03/22 01:01:39;;;;;;;1.10;0.70;;;10.00;1.00;;;;;;5075639;28;20052;-81
2023/03/22 01:04:05;;;;;;;1.85;0.50;;;9.70;7.00;;;;;;5075376;28;20052;-81
2023/03/22 01:06:34;;;;;;;0.10;0.10;;;9.70;1.00;;;;;;5075540;28;20036;-81
2023/03/22 01:09:00;;;;;;;0.52;0.52;;;9.90;1.00;;;;;;5076487;28;20125;-81
2023/03/22 01:11:26;;;;;;;0.13;0.13;;;9.80;1.00;;;;;;5075207;28;20040;-81
2023/03/22 01:13:53;;;;;;;0.22;0.22;;;10.50;99.90;;;;;;5074508;28;20593;-81
2023/03/22 01:16:20;;;;;;;0.25;0.20;;;9.60;99.90;;;;;;5073310;28;20052;-81
2023/03/22 01:18:45;;;;;;;1.17;0.90;;;9.50;99.90;;;;;;5075679;28;20041;-81
2023/03/22 01:21:12;;;;;;;2.90;1.30;;;9.50;99.90;;;;;;5059883;28;20059;-81
2023/03/22 01:23:37;;;;;;;0.10;0.10;;;9.60;99.90;;;;;;5055757;28;20044;-81
2023/03/22 01:26:04;;;;;;;0.22;0.10;;;9.50;20.60;;;;;;5055999;28;20495;-81
2023/03/22 01:28:30;;;;;;;1.10;0.63;;;9.50;99.90;;;;;;5055762;28;20059;-81
2023/03/22 01:30:59;;;;;;;0.20;0.20;;;9.70;1.00;;;;;;5065534;28;20096;-81
2023/03/22 01:33:25;;;;;;;2.13;0.55;;;9.50;99.90;;;;;;5075565;28;20055;-81
2023/03/22 01:35:50;;;;;;;0.38;0.38;;;9.50;99.90;;;;;;5062448;28;20410;-82
2023/03/22 01:38:16;;;;;;;0.10;0.05;;;9.50;99.90;;;;;;5054535;28;20051;-81
2023/03/22 01:40:42;;;;;;;1.15;0.80;;;9.50;99.90;;;;;;5060090;28;20056;-81
2023/03/22 01:43:14;;;;;;;0.40;0.32;;;9.40;99.90;;;;;;5058094;28;20053;-81
2023/03/22 01:45:52;;;;;;;1.00;0.93;;;9.40;99.90;;;;;;5054821;28;20045;-81
2023/03/22 01:48:26;;;;;;;0.03;0.03;;;9.40;99.90;;;;;;5063188;28;20064;-81
2023/03/22 01:51:21;;;;;;;0.47;0.40;;;9.40;99.90;;;;;;5074291;28;20091;-81
2023/03/22 01:53:59;;;;;;;0.38;0.30;;;9.40;1.00;;;;;;5075282;28;20044;-81
2023/03/22 01:56:30;;;;;;;0.77;0.77;;;9.40;1.00;;;;;;5074804;28;20048;-81
2023/03/22 01:58:56;;;;;;;2.17;1.45;;;9.30;98.80;;;;;;5063300;28;20048;-81
2023/03/22 02:01:22;;;;;;;0.10;0.10;;;9.30;99.90;;;;;;5060825;28;20054;-81
2023/03/22 02:03:55;;;;;;;0.20;0.20;;;9.30;99.90;;;;;;5075453;28;20075;-84
2023/03/22 02:06:22;;;;;;;0.45;0.45;;;9.40;99.90;;;;;;5074395;28;20056;-82
2023/03/22 02:08:51;;;;;;;0.00;0.00;;;9.40;1.00;;;;;;5075479;28;20048;-82
2023/03/22 02:11:26;;;;;;;2.42;1.20;;;9.40;99.90;;;;;;5067546;28;20096;-81
2023/03/22 02:14:02;;;;;;;0.00;0.00;;;9.40;1.00;;;;;;5054246;28;20056;-82
2023/03/22 02:16:39;;;;;;;0.00;0.00;;;9.30;1.00;;;;;;5054974;28;20159;-82
2023/03/22 02:19:46;;;;;;;0.90;0.70;;;9.30;99.90;;;;;;5072450;28;20189;-82
2023/03/22 02:22:37;;;;;;;0.20;0.20;;;9.30;1.00;;;;;;5073798;28;20127;-81
2023/03/22 02:25:22;;;;;;;1.38;0.47;;;9.30;90.30;;;;;;5074884;28;20052;-82
2023/03/22 02:28:09;;;;;;;0.25;0.25;;;9.30;99.90;;;;;;5074188;28;20048;-81
2023/03/22 02:30:49;;;;;;;0.17;0.17;;;9.20;99.90;;;;;;5073877;28;20981;-82
2023/03/22 02:33:45;;;;;;;0.17;0.17;;;9.30;99.90;;;;;;5071732;28;20059;-82
2023/03/22 02:36:10;;;;;;;0.00;0.00;;;9.30;99.90;;;;;;5073620;28;20059;-82
2023/03/22 02:39:11;;;;;;;0.98;0.88;;;9.30;99.90;;;;;;5074211;28;20525;-82
2023/03/22 02:41:57;;;;;;;0.00;0.00;;;9.30;1.00;;;;;;5074352;28;20044;-81
2023/03/22 02:44:41;;;;;;;0.00;0.00;;;9.30;99.90;;;;;;5057582;28;20061;-82
2023/03/22 02:47:19;;;;;;;0.17;0.17;;;9.30;99.90;;;;;;5053903;28;20043;-81
2023/03/22 02:50:03;;;;;;;0.20;0.20;;;9.30;99.90;;;;;;5055021;28;20523;-81
2023/03/22 02:52:45;;;;;;;0.38;0.35;;;9.40;1.00;;;;;;5054016;28;20049;-83
2023/03/22 02:55:29;;;;;;;0.65;0.40;;;9.40;99.90;;;;;;5058221;28;20040;-81
2023/03/22 02:58:21;;;;;;;0.00;0.00;;;9.30;99.90;;;;;;5074114;28;20104;-82
2023/03/22 03:00:52;;;;;;;0.45;0.45;;;9.30;99.90;;;;;;5072331;28;20048;-82
2023/03/22 03:03:19;;;;;;;0.15;0.15;;;9.30;1.60;;;;;;5054430;28;20538;-82
2023/03/22 03:05:50;;;;;;;4.47;1.42;;;9.40;1.00;;;;;;5053495;28;20055;-81
2023/03/22 03:08:18;;;;;;;0.30;0.30;;;9.40;99.90;;;;;;5066015;28;20044;-82
2023/03/22 03:10:44;;;;;;;0.10;0.10;;;9.40;99.90;;;;;;5072815;28;20101;-82
2023/03/22 03:13:16;;;;;;;0.00;0.00;;;9.40;99.90;;;;;;5072843;28;20063;-82
2023/03/22 03:15:44;;;;;;;0.00;0.00;;;9.40;99.90;;;;;;5074774;28;20058;-81
2023/03/22 03:18:25;;;;;;;0.13;0.10;;;9.40;1.00;;;;;;5073615;28;20048;-82
2023/03/22 03:21:10;;;;;;;0.00;0.00;;;9.40;99.90;;;;;;5074158;28;20060;-82
2023/03/22 03:23:58;;;;;;;0.35;0.28;;;9.50;99.90;;;;;;5071498;28;20078;-82
2023/03/22 03:26:51;;;;;;;1.02;0.88;;;9.50;99.90;;;;;;5073884;28;20074;-82
2023/03/22 03:29:47;;;;;;;0.00;0.00;;;9.40;99.90;;;;;;5074251;28;20069;-82
2023/03/22 03:32:27;;;;;;;0.25;0.25;;;9.40;1.00;;;;;;5072755;28;20096;-81
2023/03/22 03:35:07;;;;;;;0.63;0.52;;;9.40;99.90;;;;;;5055864;28;20536;-81
2023/03/22 03:37:43;;;;;;;0.20;0.20;;;9.40;1.00;;;;;;5053370;28;20072;-82
2023/03/22 03:40:15;;;;;;;;;;;9.30;1.00;;;;;;5055628;28;20064;-81
2023/03/22 03:42:45;;;;;;;0.45;0.45;;;9.30;99.90;;;;;;5052899;28;19975;-82
2023/03/22 03:45:14;;;;;;;0.20;0.20;;;9.40;99.90;;;;;;5052958;28;20045;-82
2023/03/22 03:47:42;;;;;;;0.15;0.15;;;9.40;99.90;;;;;;5052119;28;20568;-82
2023/03/22 03:50:08;;;;;;;0.00;0.00;;;9.30;1.00;;;;;;5051548;28;20411;-82
2023/03/22 03:52:34;;;;;;;0.88;0.88;;;9.30;99.90;;;;;;5068544;28;20068;-81
2023/03/22 03:55:00;;;;;;;1.88;1.27;;;9.30;99.90;;;;;;5072503;28;20066;-82
2023/03/22 03:57:26;;;;;;;0.63;0.63;;;9.40;59.20;;;;;;5071918;28;20041;-81
2023/03/22 03:59:51;;;;;;;3.85;1.55;;;9.40;1.00;;;;;;5072137;28;20037;-81
2023/03/22 04:02:17;;;;;;;1.55;0.52;;;10.00;1.00;;;;;;5063821;28;20044;-81
2023/03/22 04:04:42;;;;;;;0.10;0.10;;;9.40;1.00;;;;;;5052312;28;20075;-82
2023/03/22 04:07:08;;;;;;;0.00;0.00;;;10.50;99.90;;;;;;5052606;28;20068;-82
2023/03/22 04:09:36;;;;;;;0.13;0.13;;;9.50;1.60;;;;;;5051554;28;20208;-82
2023/03/22 04:12:02;;;;;;;0.43;0.25;;;9.40;99.90;;;;;;5035114;28;20045;-81
2023/03/22 04:14:28;;;;;;;0.05;0.05;;;9.50;1.00;;;;;;5052461;28;20045;-82
2023/03/22 04:16:54;;;;;;;1.55;0.70;;;9.50;1.00;;;;;;5052314;28;20049;-82
2023/03/22 04:19:21;;;;;;;1.92;0.65;;;9.50;99.90;;;;;;5067613;28;20052;-81
2023/03/22 04:21:47;;;;;;;0.45;0.45;;;9.50;99.90;;;;;;5063393;28;20142;-81
2023/03/22 04:24:14;;;;;;;0.00;0.00;;;9.60;1.00;;;;;;5052462;28;20041;-81
2023/03/22 04:26:40;;;;;;;8.15;1.25;;;9.50;99.90;;;;;;5052492;28;20095;-82
2023/03/22 04:29:06;;;;;;;0.45;0.30;;;9.40;99.90;;;;;;5052690;28;20400;-81
2023/03/22 04:31:32;;;;;;;0.38;0.38;;;9.40;99.90;;;;;;5068994;28;20088;-81
2023/03/22 04:34:04;;;;;;;0.13;0.10;;;9.40;99.90;;;;;;5074556;28;20048;-82
2023/03/22 04:36:35;;;;;;;6.82;1.27;;;9.30;99.90;;;;;;5065719;28;20047;-82
2023/03/22 04:39:06;;;;;;;0.20;0.20;;;9.40;99.90;;;;;;5054534;28;20063;-82
2023/03/22 04:41:33;;;;;;;0.30;0.30;;;9.40;99.90;;;;;;5054561;28;20063;-82
2023/03/22 04:44:02;;;;;;;5.68;0.45;;;9.40;1.00;;;;;;5054576;28;20414;-82
2023/03/22 04:46:32;;;;;;;0.30;0.20;;;9.50;60.50;;;;;;5054726;28;20048;-82
2023/03/22 04:48:58;;;;;;;0.00;0.00;;;9.50;1.00;;;;;;5055543;28;20713;-81
2023/03/22 04:51:26;;;;;;;0.00;0.00;;;9.50;99.90;;;;;;5053051;28;20041;-82
2023/03/22 04:53:53;;;;;;;0.15;0.15;;;9.50;99.90;;;;;;5054215;28;20414;-82
2023/03/22 04:56:19;;;;;;;1.20;0.75;;;9.50;60.00;;;;;;5054388;28;20116;-81
2023/03/22 04:58:45;;;;;;;0.35;0.35;;;9.60;49.80;;;;;;5054664;28;20403;-81
2023/03/22 05:01:13;;;;;;;1.70;0.70;;;9.60;1.00;;;;;;5055780;28;20064;-81
2023/03/22 05:03:41;;;;;;;12.75;0.73;;;9.50;99.90;;;;;;5073348;28;20052;-82
2023/03/22 05:06:07;;;;;;;0.00;0.00;;;9.60;99.90;;;;;;5074123;28;20052;-81
2023/03/22 05:08:34;;;;;;;2.15;1.38;;;9.50;1.00;;;;;;5066343;28;20033;-81
2023/03/22 05:11:06;;;;;;;0.20;0.20;;;9.60;1.00;;;;;;5052941;28;20145;-81
2023/03/22 05:13:32;;;;;;;0.28;0.25;;;9.60;99.90;;;;;;5068393;28;20052;-82
2023/03/22 05:15:58;;;;;;;0.20;0.20;;;9.60;1.00;;;;;;5052977;28;20538;-81
2023/03/22 05:18:25;;;;;;;0.25;0.15;;;9.70;99.90;;;;;;5053770;28;20049;-81
2023/03/22 05:20:54;;;;;;;3.58;1.65;;;9.70;1.00;;;;;;5053479;28;20060;-81
2023/03/22 05:23:21;;;;;;;0.63;0.40;;;10.00;1.00;;;;;;5054541;28;20059;-81
2023/03/22 05:25:48;;;;;;;1.85;0.85;;;9.70;1.00;;;;;;5054263;28;20049;-82
2023/03/22 05:28:15;;;;;;;1.10;0.70;;;9.70;99.90;;;;;;5063739;28;20131;-80
2023/03/22 05:30:42;;;;;;;0.52;0.52;;;9.80;99.90;;;;;;5073253;28;20044;-82
2023/03/22 05:33:08;;;;;;;0.43;0.25;;;9.80;99.90;;;;;;5073771;28;20045;-81
2023/03/22 05:35:37;;;;;;;0.88;0.88;;;9.90;1.00;;;;;;5073610;28;20044;-81
2023/03/22 05:38:03;;;;;;;0.63;0.60;;;9.90;25.70;;;;;;5073403;28;20117;-81
2023/03/22 05:40:29;;;;;;;1.67;0.75;;;9.90;99.90;;;;;;5073847;28;20044;-81
2023/03/22 05:42:55;;;;;;;3.38;2.03;;;10.00;99.90;;;;;;5061224;28;20056;-81
2023/03/22 05:45:21;;;;;;;5.25;1.92;;;10.40;1.00;;;;;;5056113;28;20044;-81
2023/03/22 05:47:48;;;;;;;0.63;0.57;;;10.10;1.00;;;;;;5059055;28;20055;-81
2023/03/22 05:50:16;;;;;;;1.10;0.60;;;10.00;49.40;;;;;;5058747;28;20053;-81
2023/03/22 05:52:43;;;;;;;0.93;0.82;;;10.00;91.70;;;;;;5067280;28;20041;-81
2023/03/22 05:55:11;;;;;;;0.50;0.50;;;10.00;99.90;;;;;;5079499;28;20044;-81
2023/03/22 05:57:37;;;;;;;2.08;1.52;;;10.00;99.90;;;;;;5079085;28;20815;-81
2023/03/22 06:00:12;;;;;;;0.22;0.22;;;10.10;99.90;;;;;;5078833;28;20063;-81
2023/03/22 06:02:42;;;;;;;1.75;1.50;;;10.10;99.90;;;;;;5077772;28;20048;-81
2023/03/22 06:05:10;;;;;;;0.82;0.80;;;11.40;99.90;;;;;;5078697;28;20132;-81
2023/03/22 06:07:36;;;;;;;1.17;0.88;;;10.10;99.90;;;;;;5076997;28;20071;-82
2023/03/22 06:10:03;;;;;;;0.60;0.45;;;10.00;99.90;;;;;;5077486;28;20048;-81
2023/03/22 06:12:30;;;;;;;1.08;0.95;;;10.00;99.90;;;;;;5062701;28;20071;-81
2023/03/22 06:14:55;;;;;;;2.10;1.08;;;10.10;99.90;;;;;;5057719;28;20049;-81
2023/03/22 06:17:22;;;;;;;0.82;0.82;;;10.10;99.90;;;;;;5057296;28;20057;-81
2023/03/22 06:19:48;;;;;;;1.55;1.20;;;10.10;50.90;;;;;;5056563;28;20949;-81
2023/03/22 06:22:14;;;;;;;1.98;0.80;;;10.20;1.00;;;;;;5069166;28;20049;-83
2023/03/22 06:24:41;;;;;;;2.92;2.25;;;10.10;1.00;;;;;;5055765;28;20049;-82
2023/03/22 06:27:07;;;;;;;1.15;1.00;;;10.20;1.00;;;;;;5057373;28;20087;-81
2023/03/22 06:29:33;;;;;;;4.18;1.08;;;10.20;1.00;;;;;;5056586;28;20180;-80
2023/03/22 06:31:59;;;;;;;0.68;0.68;;;10.20;88.10;;;;;;5058346;28;20099;-81
2023/03/22 06:34:25;;;;;;;1.02;0.98;;;10.30;12.70;;;;;;5076881;28;20079;-82
2023/03/22 06:36:52;;;;;;;0.30;0.30;;;10.40;99.90;;;;;;5076908;28;20104;-82
2023/03/22 06:39:19;;;;;;;0.50;0.50;;;10.50;99.90;;;;;;5077466;28;20049;-82
2023/03/22 06:41:45;;;;;;;0.68;0.60;;;10.50;99.90;;;;;;5075967;28;20044;-82
2023/03/22 06:44:11;;;;;;;0.20;0.20;;;10.50;99.90;;;;;;5075807;28;20504;-81
2023/03/22 06:46:37;;;;;;;0.60;0.60;;;10.10;21.00;;;;;;5076578;28;20047;-82
2023/03/22 06:49:03;;;;;;;0.30;0.30;;;10.60;99.90;;;;;;5075170;28;20036;-82
2023/03/22 06:51:30;;;;;;;1.50;1.05;;;10.60;1.00;;;;;;5072093;28;20052;-82
2023/03/22 06:53:57;;;;;;;0.60;0.60;;;11.20;99.90;;;;;;5069782;28;20051;-81
2023/03/22 06:56:22;;;;;;;0.55;0.45;;;10.60;7.40;;;;;;5069007;28;20044;-81
2023/03/22 06:58:50;;;;;;;0.80;0.80;;;10.70;16.50;;;;;;5070146;28;20048;-81
2023/03/22 07:01:17;;;;;;;0.90;0.90;;;10.80;1.00;;;;;;5070271;28;20341;-81
2023/03/22 07:03:42;;;;;;;0.80;0.80;;;10.90;34.80;;;;;;5055528;28;20108;-82
2023/03/22 07:06:08;;;;;;;3.47;1.80;;;10.90;99.90;;;;;;5068481;28;20161;-81
2023/03/22 07:08:36;;;;;;;1.58;0.85;;;11.00;99.90;;;;;;5056599;28;20048;-81
2023/03/22 07:11:02;;;;;;;4.85;2.72;;;11.00;1.00;;;;;;5031642;28;20087;-82
2023/03/22 07:13:27;;;;;;;0.82;0.47;;;11.00;99.90;;;;;;5062000;28;20053;-82
2023/03/22 07:15:58;;;;;;;0.85;0.77;;;11.10;1.00;;;;;;5062637;28;20045;-82
2023/03/22 07:18:24;;;;;;;1.73;0.50;;;11.10;99.90;;;;;;5049692;28;20060;-82
2023/03/22 07:20:50;;;;;;;2.30;1.05;;;11.40;99.90;;;;;;5050374;28;20131;-82
2023/03/22 07:23:17;;;;;;;1.85;1.65;;;11.50;99.90;;;;;;5054090;28;20506;-82
2023/03/22 07:25:44;;;;;;;1.10;1.00;;;11.70;99.90;;;;;;5068347;28;20539;-82
2023/03/22 07:28:12;;;;;;;1.40;0.47;;;11.80;62.80;;;;;;5058873;28;20044;-82
2023/03/22 07:30:38;;;;;;;0.88;0.85;;;11.70;99.90;;;;;;5049974;28;20045;-82
2023/03/22 07:33:06;;;;;;;0.60;0.45;;;11.90;1.00;;;;;;5049811;28;20052;-82
2023/03/22 07:35:32;;;;;;;0.50;0.30;;;11.60;59.80;;;;;;5050186;28;20044;-82
2023/03/22 07:37:59;;;;;;;1.02;0.38;;;11.60;99.90;;;;;;5047986;28;20072;-82
2023/03/22 07:40:25;;;;;;;0.10;0.10;;;11.70;1.00;;;;;;5048449;28;20048;-82
2023/03/22 07:42:51;;;;;;;2.25;0.93;;;11.80;1.00;;;;;;5057338;28;20149;-82
2023/03/22 07:45:19;;;;;;;0.80;0.65;;;12.30;1.00;;;;;;5061119;28;20053;-82
2023/03/22 07:47:45;;;;;;;3.67;1.70;;;12.10;99.90;;;;;;5048893;28;20474;-83
2023/03/22 07:50:12;;;;;;;1.63;1.40;;;11.70;99.90;;;;;;5049164;28;20055;-83
2023/03/22 07:52:39;;;;;;;1.17;1.02;;;11.60;99.90;;;;;;5048969;28;20399;-83
2023/03/22 07:55:06;;;;;;;3.33;0.82;;;12.10;1.00;;;;;;5048454;28;20084;-83
2023/03/22 07:57:32;;;;;;;0.30;0.30;;;11.50;99.90;;;;;;5049831;28;20167;-80
2023/03/22 07:59:58;;;;;;;1.27;0.90;;;11.40;1.00;;;;;;5049226;28;20147;-82
2023/03/22 08:02:24;;;;;;;3.00;2.40;;;11.30;99.90;;;;;;5048210;28;20052;-83
2023/03/22 08:04:53;;;;;;;0.30;0.30;;;11.20;99.90;;;;;;5048878;28;20049;-84
2023/03/22 08:07:19;;;;;;;1.38;1.27;;;11.20;99.90;;;;;;5047761;28;20055;-82
2023/03/22 08:09:46;;;;;;;0.40;0.40;;;11.20;99.90;;;;;;5048356;28;20049;-82
2023/03/22 08:12:12;;;;;;;0.25;0.25;;;11.30;1.00;;;;;;5053323;28;20080;-82
2023/03/22 08:14:37;;;;;;;0.43;0.32;;;11.40;1.00;;;;;;5068865;28;20051;-82
2023/03/22 08:17:04;;;;;;;2.33;0.88;;;11.50;1.00;;;;;;5050968;28;20044;-82
2023/03/22 08:19:31;;;;;;;0.98;0.73;;;11.90;99.90;;;;;;5050545;28;20368;-82
2023/03/22 08:21:58;;;;;;;1.38;0.20;;;12.40;76.50;;;;;;5047636;28;20040;-82
2023/03/22 08:24:24;;;;;;;0.60;0.45;;;12.50;99.90;;;;;;5046975;28;20220;-82
2023/03/22 08:26:50;;;;;;;0.35;0.22;;;12.60;50.60;;;;;;5049275;28;20067;-82
2023/03/22 08:29:16;;;;;;;0.52;0.52;;;12.40;1.00;;;;;;5055965;28;20045;-82
2023/03/22 08:31:42;;;;;;;0.43;0.40;;;12.20;64.20;;;;;;5046534;28;20063;-82
2023/03/22 08:34:08;;;;;;;1.80;0.82;;;13.10;99.80;;;;;;5047163;28;20052;-82
2023/03/22 08:36:33;;;;;;;0.52;0.45;;;12.10;92.80;;;;;;5048109;28;20585;-82
2023/03/22 08:39:00;;;;;;;0.55;0.52;;;11.90;90.30;;;;;;5046201;28;20049;-82
2023/03/22 08:41:26;;;;;;;0.00;0.00;;;11.90;99.90;;;;;;5047432;28;20053;-82
2023/03/22 08:43:52;;;;;;;2.30;1.25;;;11.90;99.90;;;;;;5045947;28;20065;-82
2023/03/22 08:46:17;;;;;;;3.20;2.00;;;11.90;99.90;;;;;;5048359;28;20044;-82
2023/03/22 08:48:49;;;;;;;0.20;0.10;;;12.10;99.90;;;;;;5046913;28;20507;-82
2023/03/22 08:51:19;;;;;;;0.82;0.73;;;12.30;99.90;;;;;;5046659;28;20094;-82
2023/03/22 08:53:46;;;;;;;0.35;0.35;;;13.30;8.90;;;;;;5046172;28;20128;-82
2023/03/22 08:56:13;;;;;;;0.60;0.43;;;12.70;99.90;;;;;;5047042;28;20041;-82
2023/03/22 08:58:41;;;;;;;0.75;0.75;;;12.80;99.90;;;;;;5047108;28;20041;-82
2023/03/22 09:01:10;;;;;;;1.02;0.63;;;12.80;99.90;;;;;;5046386;28;20075;-82
2023/03/22 09:03:36;;;;;;;1.75;1.08;;;12.90;99.90;;;;;;5045106;28;20110;-82
2023/03/22 09:06:02;;;;;;;3.70;1.05;;;13.00;99.90;;;;;;5046934;28;20045;-82
2023/03/22 09:08:28;;;;;;;0.70;0.70;;;13.00;99.90;;;;;;5046310;28;20037;-82
2023/03/22 09:10:54;;;;;;;0.17;0.17;;;13.00;99.90;;;;;;5048456;28;20049;-82
2023/03/22 09:13:20;;;;;;;0.75;0.50;;;13.10;99.90;;;;;;5065563;28;20051;-82
2023/03/22 09:15:46;;;;;;;0.55;0.52;;;13.20;99.90;;;;;;5042055;28;20121;-82
2023/03/22 09:18:12;;;;;;;0.63;0.47;;;13.80;99.90;;;;;;5033292;28;20469;-82
2023/03/22 09:20:38;;;;;;;0.38;0.35;;;13.50;99.90;;;;;;5063831;28;20550;-82
2023/03/22 09:23:04;;;;;;;0.03;0.03;;;14.50;99.90;;;;;;5064864;28;20110;-82
2023/03/22 09:25:30;;;;;;;0.80;0.63;;;13.30;99.90;;;;;;5068025;28;20123;-82
2023/03/22 09:27:56;;;;;;;2.45;1.25;;;13.20;99.90;;;;;;5067131;28;20294;-82
2023/03/22 09:30:22;;;;;;;0.10;0.10;;;13.00;99.90;;;;;;5050268;28;20048;-82
2023/03/22 09:32:48;;;;;;;0.47;0.43;;;13.00;99.90;;;;;;5050642;28;20477;-82
2023/03/22 09:35:13;;;;;;;0.30;0.20;;;12.90;99.90;;;;;;5053882;28;20102;-82
2023/03/22 09:37:39;;;;;;;0.13;0.10;;;13.80;99.90;;;;;;5050205;28;20450;-83
2023/03/22 09:40:06;;;;;;;7.70;0.98;;;12.90;99.90;;;;;;5051622;28;20397;-83
2023/03/22 09:42:39;;;;;;;0.10;0.10;;;12.80;99.90;;;;;;5051698;28;20158;-82
2023/03/22 09:45:12;;;;;;;0.70;0.32;;;13.00;99.90;;;;;;5063158;28;20409;-83
2023/03/22 09:47:42;;;;;;;0.43;0.35;;;12.70;99.90;;;;;;5071333;28;20087;-82
2023/03/22 09:50:18;;;;;;;1.17;0.40;;;12.70;99.90;;;;;;5053074;28;20049;-82
2023/03/22 09:52:44;;;;;;;0.15;0.15;;;12.90;99.90;;;;;;5051295;28;20057;-82
2023/03/22 09:55:21;;;;;;;0.65;0.52;;;12.80;99.90;;;;;;5060525;28;20063;-83
2023/03/22 09:58:06;;;;;;;0.52;0.52;;;12.60;99.90;;;;;;5067805;28;20044;-81
2023/03/22 10:01:05;;;;;;;0.00;0.00;;;12.30;99.90;;;;;;5050909;28;20055;-80
2023/03/22 10:03:33;;;;;;;0.00;0.00;;;12.00;16.40;;;;;;5050345;28;20045;-80
2023/03/22 10:06:07;;;;;;;0.00;0.00;;;11.70;99.90;;;;;;5043066;28;20358;-81
2023/03/22 10:08:55;;;;;;;0.30;0.30;;;11.70;99.90;;;;;;5049651;28;20531;-82
2023/03/22 10:11:42;;;;;;;0.77;0.08;;;12.80;1.00;;;;;;5027132;28;20052;-82
2023/03/22 10:14:29;;;;;;;2.22;1.13;;;11.60;99.90;;;;;;5031053;28;20075;-82
2023/03/22 10:17:08;;;;;;;0.03;0.03;;;11.60;99.90;;;;;;5047380;28;20610;-82
2023/03/22 10:19:40;;;;;;;0.05;0.05;;;11.70;99.90;;;;;;5047107;28;20076;-82
2023/03/22 10:22:08;;;;;;;0.52;0.35;;;11.70;99.90;;;;;;5048096;28;20060;-82
2023/03/22 10:24:37;;;;;;;0.00;0.00;;;11.60;99.90;;;;;;5052053;28;20068;-82
2023/03/22 10:27:10;;;;;;;7.07;0.25;;;11.50;1.00;;;;;;5066715;28;20036;-82
2023/03/22 10:29:41;;;;;;;6.63;1.55;;;11.50;99.90;;;;;;5057646;28;20048;-81
2023/03/22 10:32:20;;;;;;;0.00;0.00;;;11.50;99.90;;;;;;5046633;28;20056;-82
2023/03/22 10:34:46;;;;;;;0.63;0.45;;;11.50;99.90;;;;;;5048355;28;20049;-82
2023/03/22 10:37:23;;;;;;;0.40;0.32;;;11.50;99.90;;;;;;5047460;28;20072;-82
2023/03/22 10:39:54;;;;;;;4.50;1.08;;;11.40;1.00;;;;;;5057852;28;20666;-82
2023/03/22 10:42:24;;;;;;;2.17;1.73;;;11.40;1.00;;;;;;5062942;28;20045;-82
2023/03/22 10:45:11;;;;;;;1.77;0.77;;;11.30;99.90;;;;;;5048962;28;20067;-82
2023/03/22 10:47:58;;;;;;;13.43;0.85;;;11.40;99.90;;;;;;5047960;28;20040;-82
2023/03/22 10:50:32;;;;;;;0.00;0.00;;;11.30;1.00;;;;;;5047560;28;20563;-82
2023/03/22 10:53:11;;;;;;;2.85;1.52;;;11.00;99.90;;;;;;5046766;28;20583;-82
2023/03/22 10:55:42;;;;;;;0.00;0.00;;;10.90;99.90;;;;;;5050844;28;20049;-82
2023/03/22 10:58:13;;;;;;;0.15;0.10;;;10.80;50.90;;;;;;5049127;28;20051;-82
2023/03/22 11:00:50;;;;;;;0.28;0.25;;;10.70;1.00;;;;;;5047901;28;20041;-82
2023/03/22 11:03:36;;;;;;;0.98;0.95;;;10.70;99.90;;;;;;5047388;28;20075;-83
2023/03/22 11:06:14;;;;;;;0.10;0.00;;;10.60;99.90;;;;;;5063776;28;20052;-83
2023/03/22 11:08:48;;;;;;;4.90;0.17;;;10.60;99.90;;;;;;5052406;28;20045;-82
2023/03/22 11:11:25;;;;;;;0.47;0.47;;;10.50;95.10;;;;;;5046841;28;20064;-83
2023/03/22 11:14:12;;;;;;;0.32;0.30;;;10.50;99.90;;;;;;5038277;28;20064;-82
2023/03/22 11:16:59;;;;;;;0.75;0.75;;;10.40;99.90;;;;;;5057013;28;20041;-82
2023/03/22 11:19:35;;;;;;;17.90;3.20;;;10.30;99.90;;;;;;5048468;28;20041;-83
2023/03/22 11:22:05;;;;;;;0.10;0.10;;;10.30;99.90;;;;;;5047863;28;20064;-82
2023/03/22 11:24:32;;;;;;;0.00;0.00;;;10.30;99.90;;;;;;5048880;28;20044;-82
2023/03/22 11:27:21;;;;;;;0.10;0.10;;;10.20;99.90;;;;;;5047613;28;20056;-82
2023/03/22 11:29:50;;;;;;;0.08;0.08;;;10.30;99.90;;;;;;5053584;28;20096;-81
2023/03/22 11:32:34;;;;;;;0.00;0.00;;;10.20;99.90;;;;;;5066663;28;20188;-82
2023/03/22 11:35:00;;;;;;;0.00;0.00;;;10.30;99.90;;;;;;5065386;28;20123;-81
2023/03/22 11:37:26;;;;;;;0.22;0.22;;;10.40;99.90;;;;;;5066906;28;20063;-81
2023/03/22 11:39:59;;;;;;;0.20;0.15;;;10.40;99.90;;;;;;5066578;28;20096;-82
2023/03/22 11:42:25;;;;;;;0.63;0.63;;;10.40;99.90;;;;;;5065036;28;20060;-81
2023/03/22 11:44:53;;;;;;;0.30;0.30;;;10.50;99.90;;;;;;5061088;28;20128;-81
2023/03/22 11:47:19;;;;;;;4.05;1.27;;;10.50;99.90;;;;;;5047801;28;20041;-81
2023/03/22 11:49:49;;;;;;;0.25;0.25;;;10.60;99.90;;;;;;5052952;28;20403;-81
2023/03/22 11:52:25;;;;;;;10.80;2.20;;;11.10;99.90;;;;;;5068090;28;20449;-82
2023/03/22 11:54:54;;;;;;;0.10;0.10;;;10.60;99.90;;;;;;5067858;28;20103;-81
2023/03/22 11:57:24;;;;;;;0.10;0.10;;;10.90;99.90;;;;;;5069605;28;20070;-81
2023/03/22 11:59:53;;;;;;;5.80;0.15;;;10.60;99.90;;;;;;5070280;28;20103;-81
2023/03/22 12:02:22;;;;;;;0.00;0.00;;;10.60;99.90;;;;;;5069307;28;20041;-81
2023/03/22 12:04:52;;;;;;;0.32;0.32;;;10.50;99.90;;;;;;5068964;28;20048;-81
2023/03/22 12:07:23;;;;;;;0.00;0.00;;;10.50;99.90;;;;;;5069284;28;20083;-81
2023/03/22 12:10:02;;;;;;;0.43;0.40;;;10.60;99.90;;;;;;5069492;28;20056;-81
2023/03/22 12:12:52;;;;;;;0.47;0.40;;;10.60;99.90;;;;;;5069515;28;20044;-81
2023/03/22 12:15:22;;;;;;;0.15;0.10;;;10.50;99.90;;;;;;5069224;28;20052;-80
2023/03/22 12:18:15;;;;;;;1.13;0.63;;;10.80;99.90;;;;;;5070392;28;20060;-81
2023/03/22 12:20:52;;;;;;;0.65;0.57;;;10.60;99.90;;;;;;5069054;28;20099;-81
2023/03/22 12:23:21;;;;;;;2.03;1.25;;;10.50;99.90;;;;;;5070469;28;20449;-82
2023/03/22 12:25:56;;;;;;;0.05;0.05;;;10.50;99.90;;;;;;5072829;28;20048;-81
2023/03/22 12:28:30;;;;;;;5.70;1.10;;;10.60;99.90;;;;;;5071854;28;20047;-81
2023/03/22 12:30:58;;;;;;;0.15;0.15;;;10.60;99.90;;;;;;5071782;28;20297;-82
2023/03/22 12:33:26;;;;;;;0.38;0.38;;;10.60;99.90;;;;;;5053076;28;20049;-82
2023/03/22 12:35:56;;;;;;;0.00;0.00;;;10.60;99.90;;;;;;5052393;28;20068;-82
2023/03/22 12:38:34;;;;;;;0.30;0.30;;;11.30;99.90;;;;;;5051813;28;20488;-82
2023/03/22 12:41:04;;;;;;;0.20;0.10;;;10.50;99.90;;;;;;5067209;28;20056;-82
2023/03/22 12:43:54;;;;;;;0.20;0.20;;;10.50;99.90;;;;;;5056105;28;20048;-82
2023/03/22 12:46:43;;;;;;;0.10;0.03;;;10.50;99.90;;;;;;5072550;28;20484;-82
2023/03/22 12:49:24;;;;;;;0.00;0.00;;;10.40;99.90;;;;;;5072170;28;20047;-82
2023/03/22 12:51:52;;;;;;;0.08;0.08;;;10.40;99.90;;;;;;5053489;28;20510;-82
2023/03/22 12:54:24;;;;;;;0.25;0.25;;;10.40;99.90;;;;;;5071228;28;20094;-83
2023/03/22 12:56:51;;;;;;;0.28;0.20;;;10.40;99.90;;;;;;5075863;28;20052;-81
2023/03/22 12:59:22;;;;;;;1.08;0.43;;;10.30;99.90;;;;;;5075437;28;20045;-80
2023/03/22 13:01:56;;;;;;;0.20;0.10;;;10.30;99.90;;;;;;5035785;28;20045;-81
2023/03/22 13:04:34;;;;;;;1.58;0.45;;;10.40;99.90;;;;;;5035197;28;20076;-82
2023/03/22 13:07:29;;;;;;;0.00;0.00;;;10.40;99.90;;;;;;5044728;28;20071;-81
2023/03/22 13:09:56;;;;;;;0.93;0.93;;;10.40;99.90;;;;;;5056331;28;20136;-81